Time;durP1;ratioP1;P1;durP2;ratioP2;P2;SDS_P1;SDS_P2;PMS_P1;PMS_P2;Temp;Humidity;BMP_temperature;BMP_pressure;BME280_temperature;BME280_humidity;BME280_pressure;Samples;Min_cycle;Max_cycle;Signal;HPM_P1;HPM_P2
2023/01/27 00:02:20;;;;;;;19.23;10.93;;;4.30;99.90;;;;;;5095459;28;20120;-49
2023/01/27 00:04:45;;;;;;;15.93;11.02;;;4.30;99.90;;;;;;5094148;28;20389;-45
2023/01/27 00:07:11;;;;;;;19.40;11.00;;;4.40;99.90;;;;;;5095374;28;20043;-46
2023/01/27 00:09:36;;;;;;;18.63;11.43;;;4.30;99.90;;;;;;5094591;28;20067;-47
2023/01/27 00:14:46;;;;;;;17.98;12.38;;;4.30;99.90;;;;;;5094391;28;20181;-48
2023/01/27 00:17:12;;;;;;;21.73;12.55;;;4.40;99.90;;;;;;5094696;28;20039;-48
2023/01/27 00:19:37;;;;;;;15.40;11.52;;;4.30;99.90;;;;;;5076116;28;20044;-48
2023/01/27 00:24:47;;;;;;;15.80;11.82;;;4.30;99.90;;;;;;5094453;28;20055;-51
2023/01/27 00:27:13;;;;;;;18.17;12.27;;;4.30;99.90;;;;;;5094852;28;20032;-45
2023/01/27 00:29:39;;;;;;;18.50;12.65;;;4.30;99.90;;;;;;5093766;28;20150;-45
2023/01/27 00:34:49;;;;;;;17.90;12.70;;;4.30;99.90;;;;;;5094584;28;20054;-46
2023/01/27 00:37:15;;;;;;;17.00;10.55;;;4.20;99.90;;;;;;5094691;28;20390;-47
2023/01/27 00:39:41;;;;;;;26.23;13.20;;;4.20;99.90;;;;;;5093920;28;20041;-46
2023/01/27 00:42:07;;;;;;;17.30;12.10;;;4.20;99.90;;;;;;5094000;28;20309;-46
2023/01/27 00:44:33;;;;;;;19.58;12.63;;;4.10;99.90;;;;;;5093622;28;20043;-46
2023/01/27 00:46:59;;;;;;;16.65;11.90;;;4.00;99.90;;;;;;5094527;28;20040;-46
2023/01/27 00:49:24;;;;;;;14.20;11.27;;;4.10;99.90;;;;;;5094564;28;20132;-45
2023/01/27 00:51:50;;;;;;;18.77;11.85;;;4.10;99.90;;;;;;5093629;28;20089;-48
2023/01/27 00:54:16;;;;;;;16.75;13.23;;;4.10;99.90;;;;;;5093753;28;20405;-45
2023/01/27 00:56:43;;;;;;;13.95;10.60;;;4.10;99.90;;;;;;5093530;28;20477;-49
2023/01/27 00:59:09;;;;;;;15.30;13.13;;;4.10;99.90;;;;;;5075030;28;20063;-46
2023/01/27 01:01:34;;;;;;;14.93;11.27;;;4.00;99.90;;;;;;5093365;28;20047;-46
2023/01/27 01:04:00;;;;;;;19.25;11.88;;;4.10;99.90;;;;;;5093857;28;20043;-48
2023/01/27 01:06:26;;;;;;;17.85;12.07;;;4.00;99.90;;;;;;5094063;28;20075;-49
2023/01/27 01:08:55;;;;;;;18.65;11.43;;;4.00;99.90;;;;;;5076293;28;20196;-48
2023/01/27 01:11:21;;;;;;;19.17;12.43;;;3.90;99.90;;;;;;5074835;28;20861;-49
2023/01/27 01:13:47;;;;;;;19.83;12.45;;;4.00;99.90;;;;;;5093560;28;20051;-47
2023/01/27 01:16:16;;;;;;;18.27;12.38;;;3.90;99.90;;;;;;5094832;28;20065;-46
2023/01/27 01:18:42;;;;;;;18.85;12.27;;;3.90;99.90;;;;;;5098384;28;20421;-47
2023/01/27 01:21:09;;;;;;;19.83;12.80;;;3.90;99.90;;;;;;5097943;28;20075;-47
2023/01/27 01:23:39;;;;;;;21.70;12.02;;;4.00;99.90;;;;;;5098036;28;20043;-48
2023/01/27 01:26:05;;;;;;;19.25;11.40;;;3.90;99.90;;;;;;5079755;28;20351;-47
2023/01/27 01:28:31;;;;;;;14.38;10.60;;;3.90;99.90;;;;;;5098384;28;20066;-48
2023/01/27 01:31:06;;;;;;;15.02;11.68;;;3.90;99.90;;;;;;5097767;28;20614;-47
2023/01/27 01:33:32;;;;;;;14.95;10.13;;;4.00;99.90;;;;;;5079220;28;20051;-50
2023/01/27 01:36:06;;;;;;;14.93;10.07;;;3.90;99.90;;;;;;5097657;28;20059;-46
2023/01/27 01:38:32;;;;;;;13.90;9.65;;;4.00;99.90;;;;;;5079884;28;20356;-48
2023/01/27 01:40:58;;;;;;;13.75;9.48;;;3.90;99.90;;;;;;5097556;28;20083;-47
2023/01/27 01:43:25;;;;;;;15.65;9.35;;;4.00;99.90;;;;;;5078225;28;20072;-45
2023/01/27 01:45:54;;;;;;;10.45;8.82;;;3.90;99.90;;;;;;5097946;28;20044;-49
2023/01/27 01:48:26;;;;;;;12.85;8.60;;;3.90;99.90;;;;;;5097863;28;20657;-46
2023/01/27 01:51:03;;;;;;;12.43;8.00;;;3.90;99.90;;;;;;5097032;28;20063;-49
2023/01/27 01:53:46;;;;;;;14.48;8.60;;;4.00;99.90;;;;;;5096781;28;20141;-45
2023/01/27 01:56:20;;;;;;;11.75;8.40;;;4.00;99.90;;;;;;5097767;28;20658;-50
2023/01/27 01:58:47;;;;;;;13.43;8.00;;;4.00;99.90;;;;;;5097617;28;20215;-45
2023/01/27 02:01:16;;;;;;;11.13;8.63;;;4.00;99.90;;;;;;5078811;28;20075;-48
2023/01/27 02:03:45;;;;;;;12.48;8.20;;;4.00;99.90;;;;;;5097269;28;20072;-48
2023/01/27 02:06:12;;;;;;;12.48;7.93;;;4.00;99.90;;;;;;5097172;28;20610;-48
2023/01/27 02:08:41;;;;;;;13.35;8.15;;;3.90;99.90;;;;;;5096967;28;20491;-46
2023/01/27 02:11:10;;;;;;;9.75;6.43;;;4.00;99.90;;;;;;5096678;28;20553;-49
2023/01/27 02:13:40;;;;;;;11.63;7.28;;;3.90;99.90;;;;;;5096450;28;20043;-45
2023/01/27 02:16:07;;;;;;;9.23;6.25;;;3.90;99.90;;;;;;5096630;28;20073;-47
2023/01/27 02:18:32;;;;;;;9.02;4.97;;;3.90;99.90;;;;;;5078684;28;20090;-47
2023/01/27 02:20:58;;;;;;;9.90;5.65;;;3.90;99.90;;;;;;5078172;28;20154;-46
2023/01/27 02:23:39;;;;;;;9.73;5.90;;;3.90;99.90;;;;;;5095352;28;20091;-46
2023/01/27 02:26:17;;;;;;;8.45;5.72;;;3.90;99.90;;;;;;5096507;28;20044;-46
2023/01/27 02:28:43;;;;;;;8.18;6.30;;;3.90;99.90;;;;;;5076945;28;20052;-46
2023/01/27 02:31:09;;;;;;;6.25;4.35;;;3.90;99.90;;;;;;5095921;28;20385;-47
2023/01/27 02:33:35;;;;;;;8.73;5.15;;;3.90;99.90;;;;;;5095874;28;20393;-46
2023/01/27 02:36:12;;;;;;;9.45;5.25;;;3.90;99.90;;;;;;5096407;28;20092;-46
2023/01/27 02:38:49;;;;;;;8.52;4.78;;;3.90;99.90;;;;;;5096244;28;20048;-46
2023/01/27 02:41:36;;;;;;;10.05;5.10;;;3.90;99.90;;;;;;5096206;28;20057;-47
2023/01/27 02:44:02;;;;;;;8.73;4.88;;;4.00;99.90;;;;;;5095989;28;20050;-46
2023/01/27 02:46:28;;;;;;;6.60;4.72;;;3.90;99.90;;;;;;5096925;28;20044;-48
2023/01/27 02:48:54;;;;;;;7.80;4.97;;;3.90;99.90;;;;;;5096830;28;20314;-46
2023/01/27 02:51:20;;;;;;;9.48;5.40;;;3.90;99.90;;;;;;5077208;28;20043;-49
2023/01/27 02:53:46;;;;;;;6.88;5.75;;;3.80;99.90;;;;;;5096259;28;20066;-45
2023/01/27 02:56:12;;;;;;;14.07;5.45;;;3.80;99.90;;;;;;5096576;28;20374;-47
2023/01/27 02:58:37;;;;;;;7.28;5.38;;;3.80;99.90;;;;;;5078364;28;20075;-48
2023/01/27 03:01:03;;;;;;;9.45;5.20;;;3.70;99.90;;;;;;5092666;28;20078;-49
2023/01/27 03:03:29;;;;;;;8.23;5.45;;;3.80;99.90;;;;;;5095219;28;20450;-48
2023/01/27 03:05:55;;;;;;;9.25;5.68;;;3.80;99.90;;;;;;5043013;28;20055;-47
2023/01/27 03:08:20;;;;;;;8.80;5.00;;;3.70;99.90;;;;;;5078038;28;20067;-45
2023/01/27 03:10:54;;;;;;;8.73;4.82;;;3.70;99.90;;;;;;5095938;28;20043;-45
2023/01/27 03:13:24;;;;;;;11.27;4.53;;;3.80;99.90;;;;;;5095248;28;20055;-49
2023/01/27 03:18:35;;;;;;;8.00;3.85;;;3.80;99.90;;;;;;5095178;28;20051;-49
2023/01/27 03:21:03;;;;;;;6.63;4.28;;;3.80;99.90;;;;;;5095739;28;20051;-48
2023/01/27 03:23:33;;;;;;;7.43;3.75;;;3.80;99.90;;;;;;5095651;28;20054;-47
2023/01/27 03:25:59;;;;;;;6.53;3.53;;;3.80;99.90;;;;;;5096191;28;20055;-48
2023/01/27 03:28:25;;;;;;;6.38;3.75;;;3.80;99.90;;;;;;5095797;28;20121;-48
2023/01/27 03:30:57;;;;;;;6.10;3.17;;;3.80;99.90;;;;;;5094934;28;20043;-49
2023/01/27 03:33:22;;;;;;;4.68;2.50;;;3.80;99.90;;;;;;5094384;28;20043;-46
2023/01/27 03:35:48;;;;;;;5.10;2.28;;;3.80;99.90;;;;;;5095896;28;20043;-47
2023/01/27 03:46:31;;;;;;;7.25;2.95;;;3.80;99.90;;;;;;5095006;28;20054;-46
2023/01/27 03:48:58;;;;;;;7.70;3.42;;;3.80;99.90;;;;;;5095625;28;20073;-49
2023/01/27 03:51:25;;;;;;;5.75;3.20;;;3.80;99.90;;;;;;5094352;28;20035;-50
2023/01/27 03:53:51;;;;;;;4.43;2.67;;;3.80;99.90;;;;;;5094867;28;20168;-47
2023/01/27 03:56:19;;;;;;;5.45;2.70;;;3.80;99.90;;;;;;5095723;28;20039;-50
2023/01/27 03:58:46;;;;;;;6.80;2.50;;;3.80;99.90;;;;;;5076799;28;20102;-50
2023/01/27 04:01:14;;;;;;;5.22;2.17;;;3.80;99.90;;;;;;5094166;28;20043;-48
2023/01/27 04:09:13;;;;;;;5.75;2.90;;;3.80;99.90;;;;;;5094596;28;20646;-50
2023/01/27 04:11:53;;;;;;;7.22;2.60;;;3.80;99.90;;;;;;5094126;28;20373;-48
2023/01/27 04:14:24;;;;;;;4.40;2.15;;;3.80;99.90;;;;;;5093551;28;20047;-45
2023/01/27 04:16:52;;;;;;;4.22;2.10;;;3.80;99.90;;;;;;5094047;28;20775;-49
2023/01/27 04:19:18;;;;;;;4.35;2.10;;;3.70;99.90;;;;;;5094120;28;20048;-47
2023/01/27 04:21:45;;;;;;;4.97;2.17;;;3.70;99.90;;;;;;5076066;28;20406;-48
2023/01/27 04:24:24;;;;;;;5.38;2.08;;;3.70;99.90;;;;;;5075722;28;20126;-48
2023/01/27 04:26:57;;;;;;;3.40;1.85;;;3.70;99.90;;;;;;5076192;28;20554;-49
2023/01/27 04:29:26;;;;;;;6.07;2.30;;;3.60;99.90;;;;;;5092732;28;20121;-47
2023/01/27 04:31:52;;;;;;;5.07;1.80;;;3.70;99.90;;;;;;5094834;28;20043;-46
2023/01/27 04:34:18;;;;;;;4.68;2.10;;;3.60;99.90;;;;;;5075136;28;20377;-48
2023/01/27 04:36:44;;;;;;;4.20;1.75;;;3.60;99.90;;;;;;5075619;28;20031;-45
2023/01/27 04:39:10;;;;;;;5.03;1.90;;;3.50;99.90;;;;;;5093745;28;20043;-51
2023/01/27 04:41:36;;;;;;;4.68;1.52;;;3.50;99.90;;;;;;5094072;28;20042;-46
2023/01/27 04:44:03;;;;;;;3.63;2.30;;;3.40;99.90;;;;;;5092914;28;20051;-47
2023/01/27 04:46:29;;;;;;;3.13;1.60;;;3.40;99.90;;;;;;5094376;28;20051;-48
2023/01/27 04:48:54;;;;;;;2.83;1.17;;;3.40;99.90;;;;;;5094064;28;20079;-46
2023/01/27 04:51:20;;;;;;;3.53;1.23;;;3.30;99.90;;;;;;5092655;28;20448;-46
2023/01/27 04:53:46;;;;;;;1.80;1.30;;;3.30;99.90;;;;;;5093806;28;20062;-48
2023/01/27 04:56:21;;;;;;;3.58;1.40;;;3.30;99.90;;;;;;5093666;28;20039;-49
2023/01/27 04:58:47;;;;;;;3.22;1.38;;;3.30;99.90;;;;;;5075589;28;20146;-47
2023/01/27 05:01:12;;;;;;;4.90;1.27;;;3.30;99.90;;;;;;5074674;28;20044;-50
2023/01/27 05:03:38;;;;;;;3.33;1.48;;;3.30;99.90;;;;;;5091056;28;20433;-49
2023/01/27 05:06:04;;;;;;;4.55;1.60;;;3.30;99.90;;;;;;5073790;28;20047;-46
2023/01/27 05:08:29;;;;;;;5.28;1.40;;;3.20;99.90;;;;;;5093535;28;20088;-46
2023/01/27 05:10:55;;;;;;;4.32;1.40;;;3.20;99.90;;;;;;5092780;28;20044;-48
2023/01/27 05:13:21;;;;;;;2.42;1.08;;;3.30;99.90;;;;;;5074362;28;20165;-47
2023/01/27 05:15:47;;;;;;;4.25;1.83;;;3.20;99.90;;;;;;5076031;28;20036;-47
2023/01/27 05:18:13;;;;;;;4.20;1.48;;;3.20;99.90;;;;;;5058185;28;20371;-48
2023/01/27 05:20:39;;;;;;;7.68;1.48;;;3.20;99.90;;;;;;5092727;28;20988;-49
2023/01/27 05:25:49;;;;;;;4.78;1.70;;;3.20;99.90;;;;;;5092747;28;20062;-49
2023/01/27 05:28:15;;;;;;;2.40;1.23;;;3.20;99.90;;;;;;5093754;28;20048;-47
2023/01/27 05:30:40;;;;;;;4.53;1.85;;;3.20;99.90;;;;;;5092907;28;20448;-46
2023/01/27 05:33:07;;;;;;;7.68;1.90;;;3.10;99.90;;;;;;5092218;28;20205;-46
2023/01/27 05:35:33;;;;;;;4.70;1.60;;;3.10;99.90;;;;;;5093227;28;20047;-47
2023/01/27 05:37:59;;;;;;;5.32;1.67;;;3.10;99.90;;;;;;5094021;28;20061;-49
2023/01/27 05:40:25;;;;;;;3.70;1.60;;;3.00;99.90;;;;;;5093010;28;20039;-48
2023/01/27 05:42:51;;;;;;;9.18;1.70;;;3.00;99.90;;;;;;5093651;28;20044;-50
2023/01/27 05:45:18;;;;;;;7.95;2.00;;;3.00;99.90;;;;;;5075563;28;20062;-47
2023/01/27 05:47:48;;;;;;;7.20;1.70;;;3.00;99.90;;;;;;5074799;28;20040;-48
2023/01/27 05:50:20;;;;;;;6.53;2.00;;;3.00;99.90;;;;;;5093142;28;20051;-45
2023/01/27 05:52:45;;;;;;;5.85;1.60;;;3.00;99.90;;;;;;5091900;28;20406;-45
2023/01/27 05:55:11;;;;;;;8.20;1.67;;;3.00;99.90;;;;;;5092666;28;20047;-47
2023/01/27 05:57:37;;;;;;;6.18;1.80;;;3.00;99.90;;;;;;5075015;28;20040;-47
2023/01/27 06:00:03;;;;;;;8.95;2.00;;;3.00;99.90;;;;;;5092201;28;20044;-48
2023/01/27 06:02:28;;;;;;;4.85;1.58;;;3.00;99.90;;;;;;5094507;28;20151;-46
2023/01/27 06:04:54;;;;;;;6.45;1.65;;;3.00;99.90;;;;;;5095840;28;20101;-52
2023/01/27 06:07:20;;;;;;;4.97;2.05;;;3.00;99.90;;;;;;5097015;28;20040;-47
2023/01/27 06:09:45;;;;;;;5.57;1.50;;;3.00;99.90;;;;;;5096281;28;20054;-45
2023/01/27 06:12:11;;;;;;;5.40;1.77;;;2.90;99.90;;;;;;5078770;28;20043;-48
2023/01/27 06:14:37;;;;;;;6.05;1.75;;;2.90;99.90;;;;;;5078455;28;20055;-45
2023/01/27 06:17:02;;;;;;;4.07;1.92;;;2.90;99.90;;;;;;5079030;28;20192;-50
2023/01/27 06:19:28;;;;;;;4.00;1.90;;;2.90;99.90;;;;;;5097245;28;20047;-47
2023/01/27 06:21:53;;;;;;;4.78;1.70;;;2.90;99.90;;;;;;5096852;28;20116;-45
2023/01/27 06:24:19;;;;;;;5.07;2.00;;;3.00;99.90;;;;;;5094965;28;20048;-45
2023/01/27 06:26:45;;;;;;;5.50;1.90;;;3.00;99.90;;;;;;5086969;28;20039;-45
2023/01/27 06:29:10;;;;;;;4.97;1.90;;;3.00;99.90;;;;;;5096314;28;20059;-46
2023/01/27 06:31:37;;;;;;;4.15;2.00;;;3.00;99.90;;;;;;5096645;28;20040;-46
2023/01/27 06:34:02;;;;;;;5.03;2.00;;;3.00;99.90;;;;;;5095697;28;20052;-48
2023/01/27 06:36:28;;;;;;;8.52;2.45;;;3.00;99.90;;;;;;5095958;28;20104;-45
2023/01/27 06:38:54;;;;;;;2.75;1.80;;;2.90;99.90;;;;;;5097023;28;20040;-46
2023/01/27 06:41:19;;;;;;;4.53;2.03;;;2.90;99.90;;;;;;5096426;28;20347;-48
2023/01/27 06:43:45;;;;;;;9.40;2.58;;;2.90;99.90;;;;;;5096479;28;20043;-46
2023/01/27 06:46:11;;;;;;;4.20;2.10;;;2.90;99.90;;;;;;5077562;28;20490;-45
2023/01/27 06:48:37;;;;;;;5.03;2.20;;;2.90;99.90;;;;;;5096181;28;20387;-47
2023/01/27 06:51:03;;;;;;;4.88;2.05;;;2.90;99.90;;;;;;5095198;28;20743;-49
2023/01/27 06:53:30;;;;;;;5.50;2.13;;;2.80;99.90;;;;;;5095960;28;20040;-46
2023/01/27 06:55:56;;;;;;;5.18;2.25;;;2.80;99.90;;;;;;5078213;28;20059;-46
2023/01/27 06:58:22;;;;;;;5.45;2.67;;;2.90;99.90;;;;;;5078515;28;20045;-47
2023/01/27 07:00:48;;;;;;;6.55;3.08;;;2.90;99.90;;;;;;5096536;28;20059;-48
2023/01/27 07:03:13;;;;;;;3.33;2.20;;;2.90;99.90;;;;;;5095291;28;20087;-45
2023/01/27 07:05:40;;;;;;;5.80;2.13;;;2.90;99.90;;;;;;5095510;28;20048;-48
2023/01/27 07:08:06;;;;;;;3.55;2.30;;;2.90;99.90;;;;;;5096297;28;20408;-45
2023/01/27 07:10:32;;;;;;;5.70;2.50;;;2.90;99.90;;;;;;5061076;28;20054;-48
2023/01/27 07:13:09;;;;;;;4.57;2.22;;;3.00;99.90;;;;;;5077733;28;20044;-50
2023/01/27 07:15:35;;;;;;;5.18;1.80;;;3.00;99.90;;;;;;5095503;28;20461;-48
2023/01/27 07:18:02;;;;;;;6.72;2.15;;;3.00;99.90;;;;;;5096283;28;20423;-47
2023/01/27 07:20:28;;;;;;;4.10;2.00;;;3.00;99.90;;;;;;5095212;28;20043;-45
2023/01/27 07:22:58;;;;;;;5.47;2.20;;;3.00;99.90;;;;;;5095750;28;20173;-48
2023/01/27 07:25:24;;;;;;;5.57;2.20;;;3.00;99.90;;;;;;5094897;28;20067;-47
2023/01/27 07:27:51;;;;;;;3.78;1.88;;;3.00;99.90;;;;;;5096245;28;20513;-48
2023/01/27 07:30:17;;;;;;;3.22;2.05;;;3.10;99.90;;;;;;5095744;28;20434;-45
2023/01/27 07:32:43;;;;;;;5.65;2.13;;;3.10;99.90;;;;;;5094721;28;20055;-46
2023/01/27 07:35:08;;;;;;;2.80;1.50;;;3.10;99.90;;;;;;5096340;28;20443;-45
2023/01/27 07:37:34;;;;;;;5.53;1.75;;;3.10;99.90;;;;;;5095290;28;20035;-48
2023/01/27 07:39:59;;;;;;;3.67;1.90;;;3.10;99.90;;;;;;5095662;28;20382;-45
2023/01/27 07:42:25;;;;;;;6.50;2.00;;;3.10;99.90;;;;;;5095472;28;20043;-47
2023/01/27 07:44:51;;;;;;;6.05;1.80;;;3.20;99.90;;;;;;5094984;28;20112;-49
2023/01/27 07:47:16;;;;;;;7.00;1.80;;;3.20;99.90;;;;;;5095123;28;20166;-45
2023/01/27 07:49:42;;;;;;;5.68;1.83;;;3.20;99.90;;;;;;5095033;28;20081;-48
2023/01/27 07:52:08;;;;;;;4.38;2.10;;;3.20;99.90;;;;;;5094463;28;20071;-46
2023/01/27 07:54:33;;;;;;;3.53;1.80;;;3.20;99.90;;;;;;5094649;28;20043;-50
2023/01/27 07:57:00;;;;;;;4.82;2.15;;;3.20;99.90;;;;;;5095161;28;20039;-47
2023/01/27 07:59:26;;;;;;;6.32;1.92;;;3.20;99.90;;;;;;5094391;28;20051;-48
2023/01/27 08:01:51;;;;;;;5.20;2.13;;;3.20;99.90;;;;;;5077332;28;20039;-48
2023/01/27 08:04:17;;;;;;;4.30;1.85;;;3.20;99.90;;;;;;5094946;28;20047;-49
2023/01/27 08:06:43;;;;;;;6.20;1.83;;;3.20;99.90;;;;;;5076089;28;20208;-46
2023/01/27 08:09:09;;;;;;;5.03;2.00;;;3.20;99.90;;;;;;5075871;28;20158;-48
2023/01/27 08:11:35;;;;;;;3.95;1.80;;;3.20;99.90;;;;;;5094611;28;20520;-46
2023/01/27 08:14:00;;;;;;;6.43;1.63;;;3.20;99.90;;;;;;5075964;28;20040;-46
2023/01/27 08:16:26;;;;;;;4.57;2.63;;;3.30;99.90;;;;;;5094285;28;20054;-46
2023/01/27 08:18:53;;;;;;;5.65;1.60;;;3.30;99.90;;;;;;5076251;28;20115;-46
2023/01/27 08:21:19;;;;;;;5.72;1.55;;;3.30;99.90;;;;;;5094455;28;20058;-45
2023/01/27 08:23:45;;;;;;;6.28;1.92;;;3.30;99.90;;;;;;5094384;28;20044;-46
2023/01/27 08:26:11;;;;;;;5.20;1.33;;;3.40;99.90;;;;;;5094574;28;20055;-49
2023/01/27 08:28:38;;;;;;;6.10;1.40;;;3.50;99.90;;;;;;5093607;28;20481;-48
2023/01/27 08:31:04;;;;;;;5.50;1.80;;;3.50;99.90;;;;;;5075072;28;20101;-45
2023/01/27 08:33:30;;;;;;;3.22;1.65;;;3.50;99.90;;;;;;5094487;28;20051;-47
2023/01/27 08:35:55;;;;;;;4.00;2.00;;;3.60;99.90;;;;;;5094408;28;20040;-48
2023/01/27 08:38:21;;;;;;;4.07;1.92;;;3.60;99.90;;;;;;5075736;28;20055;-47
2023/01/27 08:40:47;;;;;;;6.38;2.45;;;3.60;99.90;;;;;;5094295;28;20058;-45
2023/01/27 08:43:15;;;;;;;4.20;1.63;;;3.70;99.90;;;;;;5094008;28;20040;-45
2023/01/27 08:45:41;;;;;;;7.30;1.67;;;3.70;99.90;;;;;;5094047;28;20054;-45
2023/01/27 08:48:07;;;;;;;3.63;1.60;;;3.70;99.90;;;;;;5093606;28;20032;-46
2023/01/27 08:50:33;;;;;;;5.53;2.25;;;3.70;99.90;;;;;;5092588;28;20065;-48
2023/01/27 08:52:59;;;;;;;3.25;1.58;;;3.70;99.90;;;;;;5092486;28;20043;-48
2023/01/27 08:55:26;;;;;;;2.88;1.52;;;3.70;99.90;;;;;;5092502;28;20052;-46
2023/01/27 08:57:52;;;;;;;3.20;1.40;;;3.70;99.90;;;;;;5093058;28;20044;-47
2023/01/27 09:00:18;;;;;;;5.80;1.92;;;3.80;99.90;;;;;;5092160;28;20047;-48
2023/01/27 09:02:44;;;;;;;3.15;1.42;;;3.80;99.90;;;;;;5092787;28;20039;-48
2023/01/27 09:05:10;;;;;;;5.50;1.70;;;3.80;99.90;;;;;;5093205;28;20078;-48
2023/01/27 09:07:36;;;;;;;2.67;1.30;;;3.90;99.90;;;;;;5092711;28;20123;-45
2023/01/27 09:10:03;;;;;;;3.13;1.40;;;3.90;99.90;;;;;;5093082;28;20808;-48
2023/01/27 09:12:28;;;;;;;5.10;1.65;;;3.90;99.90;;;;;;5092857;28;20435;-46
2023/01/27 09:14:57;;;;;;;3.40;1.33;;;4.00;99.90;;;;;;5092389;28;20300;-47
2023/01/27 09:17:23;;;;;;;5.65;1.70;;;4.10;99.90;;;;;;5093040;28;20036;-48
2023/01/27 09:19:49;;;;;;;7.47;2.00;;;4.10;99.90;;;;;;5089814;28;20036;-45
2023/01/27 09:22:14;;;;;;;4.15;2.00;;;4.20;99.90;;;;;;5092840;28;20050;-49
2023/01/27 09:24:40;;;;;;;6.07;1.60;;;4.20;99.90;;;;;;5092217;28;20483;-47
2023/01/27 09:27:06;;;;;;;6.95;2.42;;;4.20;99.90;;;;;;5092444;28;20268;-48
2023/01/27 09:29:32;;;;;;;4.82;1.80;;;4.20;99.90;;;;;;5073898;28;20397;-45
2023/01/27 09:31:57;;;;;;;4.13;1.92;;;4.20;99.90;;;;;;5074244;28;20420;-48
2023/01/27 09:34:23;;;;;;;6.22;1.60;;;4.20;99.90;;;;;;5092715;28;20046;-47
2023/01/27 09:36:53;;;;;;;6.45;2.17;;;4.30;99.90;;;;;;5093390;28;20127;-48
2023/01/27 09:39:20;;;;;;;40.83;3.42;;;4.20;99.90;;;;;;5096930;28;20390;-45
2023/01/27 09:42:13;;;;;;;4.28;1.90;;;4.30;99.90;;;;;;5097251;28;20097;-47
2023/01/27 09:45:20;;;;;;;3.55;1.65;;;4.30;99.90;;;;;;5097082;28;20039;-46
2023/01/27 09:48:24;;;;;;;6.00;1.85;;;4.40;99.90;;;;;;5098071;28;20048;-47
2023/01/27 09:51:15;;;;;;;4.95;1.60;;;4.40;99.90;;;;;;5088184;28;20048;-48
2023/01/27 09:54:02;;;;;;;4.15;1.60;;;4.40;99.90;;;;;;5096629;28;20475;-46
2023/01/27 09:56:37;;;;;;;3.28;1.45;;;4.50;99.90;;;;;;5097218;28;20086;-45
2023/01/27 09:59:12;;;;;;;2.90;1.40;;;4.50;99.90;;;;;;5078531;28;20405;-49
2023/01/27 10:01:57;;;;;;;5.70;1.83;;;4.50;99.90;;;;;;5097231;28;20522;-45
2023/01/27 10:04:28;;;;;;;4.55;1.83;;;4.50;99.90;;;;;;5078416;28;20497;-48
2023/01/27 10:07:23;;;;;;;4.82;2.70;;;4.60;99.90;;;;;;5097174;28;20054;-45
2023/01/27 10:10:28;;;;;;;4.35;2.40;;;4.60;99.90;;;;;;5096866;28;20089;-46
2023/01/27 10:12:54;;;;;;;4.97;2.40;;;4.70;99.90;;;;;;5012738;28;20057;-48
2023/01/27 10:15:38;;;;;;;3.75;1.70;;;4.70;99.90;;;;;;5016438;28;20463;-45
2023/01/27 10:18:07;;;;;;;4.32;1.95;;;4.80;99.90;;;;;;5004624;28;20111;-47
2023/01/27 10:20:39;;;;;;;4.82;2.03;;;4.70;99.90;;;;;;5013429;28;20079;-48
2023/01/27 10:23:21;;;;;;;4.35;2.10;;;4.80;99.90;;;;;;5013760;28;20065;-48
2023/01/27 10:25:58;;;;;;;3.92;1.85;;;4.80;99.90;;;;;;5015728;28;20181;-47
2023/01/27 10:28:28;;;;;;;2.40;1.70;;;4.80;99.90;;;;;;5013929;28;20238;-45
2023/01/27 10:31:04;;;;;;;3.45;1.70;;;4.80;99.90;;;;;;5013108;28;20057;-49
2023/01/27 10:33:42;;;;;;;4.78;1.50;;;4.80;99.90;;;;;;5013301;28;20124;-46
2023/01/27 10:36:25;;;;;;;1.80;1.00;;;4.80;99.90;;;;;;5001034;28;20053;-50
2023/01/27 10:39:02;;;;;;;3.67;1.27;;;4.70;99.90;;;;;;4996470;28;20496;-45
2023/01/27 10:41:47;;;;;;;4.47;1.77;;;4.80;99.90;;;;;;5013368;28;20307;-46
2023/01/27 10:44:52;;;;;;;1.77;1.10;;;4.70;99.90;;;;;;5013336;28;20061;-50
2023/01/27 10:47:53;;;;;;;4.50;1.75;;;4.80;99.90;;;;;;4997162;28;20060;-47
2023/01/27 10:50:25;;;;;;;3.40;1.15;;;4.80;99.90;;;;;;5078365;28;20054;-47
2023/01/27 10:53:26;;;;;;;2.80;0.90;;;4.80;99.90;;;;;;5095819;28;20123;-50
2023/01/27 10:56:05;;;;;;;3.67;1.40;;;4.80;99.90;;;;;;5096262;28;20032;-48
2023/01/27 10:58:55;;;;;;;1.75;0.90;;;4.80;99.90;;;;;;5078104;28;20075;-49
2023/01/27 11:01:30;;;;;;;1.88;0.82;;;4.80;99.90;;;;;;5096074;28;20562;-48
2023/01/27 11:04:11;;;;;;;2.28;1.20;;;4.70;99.90;;;;;;5096224;28;20044;-46
2023/01/27 11:06:39;;;;;;;1.10;0.90;;;4.70;99.90;;;;;;5096151;28;20051;-51
2023/01/27 11:09:15;;;;;;;2.13;1.08;;;4.70;99.90;;;;;;5095859;28;20078;-50
2023/01/27 11:11:43;;;;;;;2.22;1.58;;;4.70;99.90;;;;;;5095609;28;20474;-45
2023/01/27 11:14:21;;;;;;;2.08;1.10;;;4.80;99.90;;;;;;5095628;28;20498;-47
2023/01/27 11:16:50;;;;;;;3.90;1.25;;;4.80;99.90;;;;;;5095793;28;20039;-45
2023/01/27 11:19:44;;;;;;;1.90;1.00;;;4.80;99.90;;;;;;5095234;28;20532;-45
2023/01/27 11:22:20;;;;;;;2.05;0.98;;;4.80;99.90;;;;;;5011974;28;20483;-45
2023/01/27 11:25:12;;;;;;;1.20;0.80;;;4.70;99.90;;;;;;4998722;28;20932;-46
2023/01/27 11:27:51;;;;;;;1.85;0.80;;;4.80;99.90;;;;;;5010642;28;20068;-48
2023/01/27 11:30:41;;;;;;;1.48;0.90;;;4.70;99.90;;;;;;4994370;28;20065;-47
2023/01/27 11:33:43;;;;;;;2.47;0.80;;;4.70;99.90;;;;;;5010565;28;20068;-45
2023/01/27 11:36:09;;;;;;;1.10;0.77;;;4.70;99.90;;;;;;4972771;28;20066;-47
2023/01/27 11:38:35;;;;;;;0.98;0.80;;;4.70;99.90;;;;;;4954864;28;20365;-45
2023/01/27 11:41:01;;;;;;;2.10;0.98;;;4.70;99.90;;;;;;4960342;28;20062;-46
2023/01/27 11:43:27;;;;;;;1.05;0.70;;;4.80;99.90;;;;;;4958708;28;20058;-45
2023/01/27 11:46:01;;;;;;;2.10;0.70;;;4.80;99.90;;;;;;4972465;28;20058;-48
2023/01/27 11:48:39;;;;;;;1.75;0.80;;;4.80;99.90;;;;;;4971681;28;20632;-52
2023/01/27 11:51:15;;;;;;;1.70;1.00;;;4.70;99.90;;;;;;4966283;28;20058;-46
2023/01/27 11:53:41;;;;;;;1.73;0.82;;;4.70;99.90;;;;;;4968169;28;20436;-47
2023/01/27 11:56:14;;;;;;;1.38;0.88;;;4.70;99.90;;;;;;4967020;28;20093;-49
2023/01/27 11:58:48;;;;;;;1.45;0.90;;;4.70;99.90;;;;;;5001245;22;20436;-46
2023/01/27 12:01:16;;;;;;;;;;;4.70;99.90;;;;;;5004229;28;20096;-46
2023/01/27 12:04:12;;;;;;;2.55;1.10;;;4.70;99.90;;;;;;4996284;28;20380;-45
2023/01/27 12:07:08;;;;;;;2.20;1.17;;;4.70;99.90;;;;;;5011945;28;20443;-46
2023/01/27 12:09:40;;;;;;;1.83;1.08;;;4.60;99.90;;;;;;5002746;28;20118;-48
2023/01/27 12:12:10;;;;;;;1.60;1.08;;;4.60;99.90;;;;;;5008156;28;20400;-47
2023/01/27 12:14:36;;;;;;;1.13;1.00;;;4.50;99.90;;;;;;4994820;28;20085;-45
2023/01/27 12:17:04;;;;;;;0.98;0.82;;;4.50;99.90;;;;;;5012250;28;20574;-46
2023/01/27 12:19:33;;;;;;;1.17;0.82;;;4.50;99.90;;;;;;5012907;28;20049;-45
2023/01/27 12:22:05;;;;;;;1.48;1.02;;;4.60;99.90;;;;;;4992972;28;20050;-46
2023/01/27 12:24:34;;;;;;;1.17;0.90;;;4.50;99.90;;;;;;5007691;28;20053;-45
2023/01/27 12:27:01;;;;;;;2.85;1.23;;;4.50;99.90;;;;;;5011367;28;20045;-44
2023/01/27 12:29:38;;;;;;;2.15;1.25;;;4.50;99.90;;;;;;5007248;28;20597;-45
2023/01/27 12:32:17;;;;;;;1.45;1.10;;;4.50;99.90;;;;;;5013952;28;20060;-46
2023/01/27 12:34:48;;;;;;;1.33;1.00;;;4.50;99.90;;;;;;5013237;28;20060;-48
2023/01/27 12:37:23;;;;;;;1.58;1.05;;;4.50;99.90;;;;;;4996264;28;20124;-46
2023/01/27 12:39:56;;;;;;;2.88;1.10;;;4.50;99.90;;;;;;5012856;28;20056;-46
2023/01/27 12:42:43;;;;;;;1.65;1.13;;;4.50;99.90;;;;;;5004296;28;20056;-48
2023/01/27 12:45:17;;;;;;;2.63;1.80;;;4.50;99.90;;;;;;5013978;28;20420;-46
2023/01/27 12:47:58;;;;;;;1.95;1.70;;;4.50;99.90;;;;;;5000353;28;20053;-47
2023/01/27 12:50:28;;;;;;;2.10;1.73;;;4.40;99.90;;;;;;4995631;28;20057;-45
2023/01/27 12:53:07;;;;;;;3.58;1.85;;;4.40;99.90;;;;;;5008014;28;20476;-47
2023/01/27 12:55:40;;;;;;;2.90;2.28;;;4.40;99.90;;;;;;5008537;28;20450;-50
2023/01/27 12:58:29;;;;;;;4.00;2.22;;;4.40;99.90;;;;;;4999849;28;20041;-46
2023/01/27 13:00:56;;;;;;;2.95;1.90;;;4.40;99.90;;;;;;5012443;28;20488;-46
2023/01/27 13:03:23;;;;;;;2.83;1.77;;;4.40;99.90;;;;;;5013655;28;20393;-49
2023/01/27 13:05:54;;;;;;;3.38;2.33;;;4.40;99.90;;;;;;5014057;28;20161;-47
2023/01/27 13:08:21;;;;;;;3.38;2.40;;;4.30;99.90;;;;;;5013532;28;20046;-45
2023/01/27 13:11:06;;;;;;;2.55;2.33;;;4.30;99.90;;;;;;5012341;28;20557;-44
2023/01/27 13:13:33;;;;;;;4.05;3.08;;;4.20;99.90;;;;;;4993479;28;20061;-48
2023/01/27 13:16:13;;;;;;;3.67;2.92;;;4.10;99.90;;;;;;5002147;28;20050;-46
2023/01/27 13:18:41;;;;;;;4.00;3.22;;;4.20;99.90;;;;;;4995998;28;20060;-47
2023/01/27 13:21:16;;;;;;;5.35;3.55;;;4.10;99.90;;;;;;4995060;28;20064;-47
2023/01/27 13:23:43;;;;;;;4.07;3.65;;;4.10;99.90;;;;;;5001183;28;20055;-47
2023/01/27 13:26:09;;;;;;;4.82;3.97;;;4.10;99.90;;;;;;5014225;28;20057;-45
2023/01/27 13:28:53;;;;;;;4.00;3.40;;;4.10;99.90;;;;;;5012836;28;20053;-47
2023/01/27 13:31:41;;;;;;;4.22;3.83;;;4.10;99.90;;;;;;5012689;28;20198;-46
2023/01/27 13:34:37;;;;;;;7.05;4.00;;;4.10;99.90;;;;;;5013071;28;20054;-46
2023/01/27 13:37:19;;;;;;;6.10;4.20;;;4.10;99.90;;;;;;5013145;28;20089;-48
2023/01/27 13:40:22;;;;;;;6.18;5.00;;;4.10;99.90;;;;;;5010970;28;20542;-46